Time;durP1;ratioP1;P1;durP2;ratioP2;P2;SDS_P1;SDS_P2;PMS_P1;PMS_P2;Temp;Humidity;BMP_temperature;BMP_pressure;BME280_temperature;BME280_humidity;BME280_pressure;Samples;Min_cycle;Max_cycle;Signal;HPM_P1;HPM_P2
2020/12/05 00:00:01;;;;;;;18.38;13.30;;;4.40;99.90;;;;;;5032623;28;20132;-78
2020/12/05 00:02:27;;;;;;;21.40;14.18;;;4.30;99.90;;;;;;5033204;28;20089;-77
2020/12/05 00:04:54;;;;;;;18.20;13.35;;;4.40;99.90;;;;;;5033277;28;20081;-76
2020/12/05 00:07:21;;;;;;;17.23;12.80;;;4.30;99.90;;;;;;5032488;28;20099;-77
2020/12/05 00:09:47;;;;;;;18.08;13.25;;;4.30;99.90;;;;;;5032494;28;20091;-78
2020/12/05 00:12:14;;;;;;;17.20;13.38;;;4.30;99.90;;;;;;5032857;28;20578;-77
2020/12/05 00:14:40;;;;;;;19.10;13.88;;;4.30;99.90;;;;;;5032803;28;20080;-74
2020/12/05 00:17:07;;;;;;;19.42;13.93;;;4.40;99.90;;;;;;5032365;28;20132;-75
2020/12/05 00:19:33;;;;;;;18.50;13.73;;;4.40;99.90;;;;;;5032389;28;20085;-77
2020/12/05 00:22:00;;;;;;;20.42;14.75;;;4.40;99.90;;;;;;5032791;28;20053;-77
2020/12/05 00:24:27;;;;;;;20.42;14.32;;;4.50;99.90;;;;;;5032571;28;20482;-77
2020/12/05 00:26:55;;;;;;;18.27;13.75;;;4.50;99.90;;;;;;5032660;28;20056;-77
2020/12/05 00:29:22;;;;;;;20.75;14.18;;;4.50;99.90;;;;;;5032669;28;20736;-78
2020/12/05 00:31:50;;;;;;;22.20;14.73;;;4.50;99.90;;;;;;5032605;28;20049;-76
2020/12/05 00:34:17;;;;;;;18.00;13.75;;;4.40;99.90;;;;;;5032408;28;20081;-77
2020/12/05 00:36:43;;;;;;;19.27;14.55;;;4.40;99.90;;;;;;5032364;28;20050;-76
2020/12/05 00:39:10;;;;;;;20.00;14.57;;;4.40;99.90;;;;;;5032091;28;20450;-74
2020/12/05 00:41:37;;;;;;;19.98;15.07;;;4.50;99.90;;;;;;5032141;28;20049;-76
2020/12/05 00:44:04;;;;;;;19.45;15.10;;;4.60;99.90;;;;;;5032231;28;20103;-75
2020/12/05 00:46:30;;;;;;;19.85;14.35;;;4.60;99.90;;;;;;5032218;28;20469;-77
2020/12/05 00:48:57;;;;;;;20.48;14.05;;;4.60;99.90;;;;;;5032131;28;20099;-74
2020/12/05 00:51:23;;;;;;;21.45;13.98;;;4.60;99.90;;;;;;5032028;28;20096;-77
2020/12/05 00:53:50;;;;;;;17.92;14.43;;;4.70;99.90;;;;;;5032311;28;20049;-77
2020/12/05 00:56:20;;;;;;;21.08;13.98;;;4.70;99.90;;;;;;5031946;28;20107;-77
2020/12/05 00:58:47;;;;;;;22.02;14.00;;;4.70;99.90;;;;;;5031934;28;20136;-77
2020/12/05 01:01:13;;;;;;;23.27;14.20;;;4.60;99.90;;;;;;5032233;28;20132;-78
2020/12/05 01:03:40;;;;;;;19.02;13.75;;;4.70;99.90;;;;;;5033474;28;20507;-77
2020/12/05 01:06:11;;;;;;;19.30;13.95;;;4.70;99.90;;;;;;5032327;28;20135;-77
2020/12/05 01:08:40;;;;;;;18.45;13.50;;;4.60;99.90;;;;;;5031599;28;20133;-76
2020/12/05 01:11:10;;;;;;;18.75;13.23;;;4.60;99.90;;;;;;5031879;28;20061;-75
2020/12/05 01:13:37;;;;;;;21.30;14.00;;;4.60;99.90;;;;;;5032008;28;20577;-76
2020/12/05 01:16:04;;;;;;;17.48;12.65;;;4.60;99.90;;;;;;5032057;28;20477;-75
2020/12/05 01:18:30;;;;;;;18.55;13.75;;;4.60;99.90;;;;;;5031542;28;20132;-75
2020/12/05 01:20:56;;;;;;;22.25;14.52;;;4.60;99.90;;;;;;5032113;28;20141;-75
2020/12/05 01:23:23;;;;;;;17.65;13.20;;;4.60;99.90;;;;;;5032039;28;20081;-76
2020/12/05 01:25:49;;;;;;;19.92;12.85;;;4.60;99.90;;;;;;5032511;28;20136;-75
2020/12/05 01:28:16;;;;;;;20.92;14.07;;;4.60;99.90;;;;;;5032318;28;20089;-75
2020/12/05 01:30:42;;;;;;;23.50;14.88;;;4.60;99.90;;;;;;5032889;28;20124;-75
2020/12/05 01:33:09;;;;;;;20.10;14.32;;;4.60;99.90;;;;;;5032760;28;20136;-76
2020/12/05 01:35:36;;;;;;;21.27;13.52;;;4.50;99.90;;;;;;5032946;28;20088;-76
2020/12/05 01:38:02;;;;;;;19.02;13.77;;;4.60;99.90;;;;;;5032849;28;20088;-76
2020/12/05 01:40:28;;;;;;;18.85;14.20;;;4.60;99.90;;;;;;5037682;28;20483;-79
2020/12/05 01:42:55;;;;;;;19.95;14.43;;;4.60;99.90;;;;;;5048603;28;20045;-79
2020/12/05 01:45:21;;;;;;;21.10;15.18;;;4.60;99.90;;;;;;5051692;28;20049;-75
2020/12/05 01:47:47;;;;;;;18.92;13.93;;;4.60;99.90;;;;;;5050438;28;20046;-77
2020/12/05 01:50:16;;;;;;;21.55;14.63;;;4.60;99.90;;;;;;5052365;28;20056;-74
2020/12/05 01:52:43;;;;;;;19.90;14.18;;;4.60;99.90;;;;;;5044498;28;20087;-75
2020/12/05 01:55:10;;;;;;;20.55;14.52;;;4.70;99.90;;;;;;5032877;28;20136;-75
2020/12/05 01:57:36;;;;;;;21.60;15.68;;;4.70;99.90;;;;;;5031779;28;20085;-75
2020/12/05 02:00:05;;;;;;;20.52;14.45;;;4.70;99.90;;;;;;5031365;28;20133;-75
2020/12/05 02:02:31;;;;;;;21.58;15.30;;;4.70;99.90;;;;;;5031731;28;20133;-75
2020/12/05 02:05:06;;;;;;;25.55;15.05;;;4.70;99.90;;;;;;5034970;28;20136;-74
2020/12/05 02:07:44;;;;;;;23.48;16.60;;;4.60;99.90;;;;;;5035220;28;20124;-74
2020/12/05 02:10:13;;;;;;;23.80;17.00;;;4.60;99.90;;;;;;5034601;28;20081;-75
2020/12/05 02:12:47;;;;;;;25.90;17.65;;;4.60;99.90;;;;;;5034811;28;20132;-74
2020/12/05 02:15:19;;;;;;;24.95;17.02;;;4.60;99.90;;;;;;5034781;28;20132;-76
2020/12/05 02:17:57;;;;;;;25.88;18.17;;;4.60;99.90;;;;;;5034931;28;20133;-75
2020/12/05 02:20:26;;;;;;;30.35;18.23;;;4.50;99.90;;;;;;5034724;28;20053;-75
2020/12/05 02:22:53;;;;;;;29.42;18.73;;;4.50;99.90;;;;;;5034497;28;20136;-75
2020/12/05 02:25:20;;;;;;;26.17;18.30;;;4.50;99.90;;;;;;5034663;28;20141;-74
2020/12/05 02:27:47;;;;;;;31.02;19.52;;;4.50;99.90;;;;;;5034539;28;20128;-78
2020/12/05 02:30:13;;;;;;;29.00;19.23;;;4.50;99.90;;;;;;5033985;28;20494;-76
2020/12/05 02:32:40;;;;;;;29.05;19.35;;;4.50;99.90;;;;;;5034395;28;20084;-75
2020/12/05 02:35:07;;;;;;;27.25;19.38;;;4.50;99.90;;;;;;5034750;28;20092;-77
2020/12/05 02:37:39;;;;;;;31.02;19.15;;;4.50;99.90;;;;;;5034657;28;20057;-78
2020/12/05 02:40:06;;;;;;;26.17;18.60;;;4.50;99.90;;;;;;5034320;28;20084;-76
2020/12/05 02:42:35;;;;;;;30.27;19.52;;;4.50;99.90;;;;;;5034312;28;20571;-76
2020/12/05 02:45:02;;;;;;;31.60;20.60;;;4.50;99.90;;;;;;5034222;28;20057;-79
2020/12/05 02:47:28;;;;;;;30.05;19.90;;;4.50;99.90;;;;;;5034032;28;20137;-77
2020/12/05 02:49:54;;;;;;;33.40;20.00;;;4.50;99.90;;;;;;5033410;28;20132;-77
2020/12/05 02:52:21;;;;;;;30.48;19.98;;;4.50;99.90;;;;;;5034267;28;20133;-77
2020/12/05 02:54:47;;;;;;;32.65;20.23;;;4.60;99.90;;;;;;5034235;28;20057;-77
2020/12/05 02:57:13;;;;;;;30.15;19.77;;;4.50;99.90;;;;;;5033942;28;20091;-77
2020/12/05 02:59:41;;;;;;;31.00;19.73;;;4.50;99.90;;;;;;5034006;28;20559;-77
2020/12/05 03:02:07;;;;;;;33.08;20.90;;;4.50;99.90;;;;;;5034191;28;20136;-77
2020/12/05 03:04:33;;;;;;;34.88;22.20;;;4.40;99.90;;;;;;5034336;28;20084;-78
2020/12/05 03:07:05;;;;;;;32.45;21.55;;;4.40;99.90;;;;;;5033967;28;20132;-78
2020/12/05 03:09:31;;;;;;;29.20;20.77;;;4.40;99.90;;;;;;5033675;28;20053;-78
2020/12/05 03:11:58;;;;;;;33.45;20.98;;;4.50;99.90;;;;;;5033911;28;20139;-76
2020/12/05 03:14:24;;;;;;;33.58;21.40;;;4.40;99.90;;;;;;5033982;28;20132;-77
2020/12/05 03:16:51;;;;;;;32.30;21.27;;;4.50;99.90;;;;;;5033807;28;20132;-77
2020/12/05 03:19:18;;;;;;;31.95;20.30;;;4.40;99.90;;;;;;5033505;28;20132;-75
2020/12/05 03:21:44;;;;;;;33.53;20.83;;;4.50;99.90;;;;;;5033753;28;20147;-75
2020/12/05 03:24:10;;;;;;;32.75;20.67;;;4.50;99.90;;;;;;5033560;28;20577;-77
2020/12/05 03:26:37;;;;;;;31.67;20.65;;;4.50;99.90;;;;;;5033866;28;20132;-77
2020/12/05 03:29:03;;;;;;;35.20;21.63;;;4.50;99.90;;;;;;5033514;28;20088;-76
2020/12/05 03:31:39;;;;;;;33.13;20.67;;;4.50;99.90;;;;;;5033504;28;20085;-78
2020/12/05 03:34:07;;;;;;;30.20;20.83;;;4.50;99.90;;;;;;5033184;28;20049;-78
2020/12/05 03:36:33;;;;;;;35.78;22.02;;;4.50;99.90;;;;;;5033077;28;20057;-76
2020/12/05 03:39:00;;;;;;;34.90;22.40;;;4.50;99.90;;;;;;5033137;28;20077;-76
2020/12/05 03:41:26;;;;;;;33.97;21.70;;;4.50;99.90;;;;;;5033256;28;20132;-76
2020/12/05 03:43:52;;;;;;;35.67;22.90;;;4.50;99.90;;;;;;5033207;28;20092;-77
2020/12/05 03:46:19;;;;;;;36.13;23.67;;;4.50;99.90;;;;;;5033130;28;20049;-77
2020/12/05 03:48:45;;;;;;;35.50;22.83;;;4.40;99.90;;;;;;5033126;28;20132;-77
2020/12/05 03:51:13;;;;;;;38.70;22.35;;;4.50;99.90;;;;;;5032953;28;20129;-76
2020/12/05 03:53:39;;;;;;;38.10;22.63;;;4.40;99.90;;;;;;5033098;28;20168;-78
2020/12/05 03:56:06;;;;;;;33.60;21.80;;;4.40;99.90;;;;;;5033490;28;20140;-77
2020/12/05 03:58:32;;;;;;;33.63;22.15;;;4.40;99.90;;;;;;5032339;28;20511;-77
2020/12/05 04:00:59;;;;;;;37.10;24.42;;;4.40;99.90;;;;;;5032924;28;20049;-77
2020/12/05 04:03:25;;;;;;;37.53;23.42;;;4.50;99.90;;;;;;5032833;28;20132;-78
2020/12/05 04:05:52;;;;;;;37.85;22.20;;;4.40;99.90;;;;;;5051595;23;20073;-77
2020/12/05 04:08:19;;;;;;;39.47;24.25;;;4.40;99.90;;;;;;5052290;28;20561;-78
2020/12/05 04:10:45;;;;;;;40.42;23.23;;;4.40;99.90;;;;;;5052545;28;20132;-78
2020/12/05 04:13:12;;;;;;;38.10;22.23;;;4.50;99.90;;;;;;5060709;28;20080;-80
2020/12/05 04:15:39;;;;;;;35.13;22.05;;;4.50;99.90;;;;;;5053408;28;20127;-78
2020/12/05 04:18:05;;;;;;;39.08;23.80;;;4.50;99.90;;;;;;5054399;28;20063;-78
2020/12/05 04:20:32;;;;;;;39.10;23.13;;;4.50;99.90;;;;;;5051897;28;20131;-77
2020/12/05 04:22:58;;;;;;;36.63;24.10;;;4.40;99.90;;;;;;5052830;28;20132;-79
2020/12/05 04:25:26;;;;;;;35.50;22.30;;;4.50;99.90;;;;;;5051857;28;20418;-78
2020/12/05 04:27:53;;;;;;;38.55;23.40;;;4.40;99.90;;;;;;5051966;28;20510;-79
2020/12/05 04:30:19;;;;;;;35.95;23.20;;;4.40;99.90;;;;;;5051640;28;20141;-77
2020/12/05 04:32:45;;;;;;;37.90;22.83;;;4.40;99.90;;;;;;5051842;28;20132;-77
2020/12/05 04:35:12;;;;;;;37.97;22.85;;;4.30;99.90;;;;;;5051380;28;20084;-78
2020/12/05 04:37:39;;;;;;;36.97;23.13;;;4.30;99.90;;;;;;5045901;28;20303;-78
2020/12/05 04:40:06;;;;;;;35.30;23.48;;;4.30;99.90;;;;;;5030975;28;20140;-77
2020/12/05 04:42:33;;;;;;;34.92;23.55;;;4.30;99.90;;;;;;5031077;28;20049;-77
2020/12/05 04:45:01;;;;;;;33.33;22.98;;;4.30;99.90;;;;;;5031166;28;20057;-78
2020/12/05 04:47:28;;;;;;;33.67;22.67;;;4.30;99.90;;;;;;5031061;28;20085;-77
2020/12/05 04:49:56;;;;;;;34.78;23.45;;;4.20;99.90;;;;;;5030777;28;20053;-76
2020/12/05 04:52:25;;;;;;;41.58;28.40;;;4.30;99.90;;;;;;5043263;28;20395;-76
2020/12/05 04:54:53;;;;;;;36.38;25.05;;;4.30;99.90;;;;;;5052354;28;20103;-77
2020/12/05 04:57:23;;;;;;;35.47;22.90;;;4.30;99.90;;;;;;5052700;28;20425;-78
2020/12/05 04:59:51;;;;;;;31.67;22.90;;;4.30;99.90;;;;;;5050939;28;20142;-78
2020/12/05 05:02:20;;;;;;;34.10;22.85;;;4.30;99.90;;;;;;5051656;28;20495;-78
2020/12/05 05:04:48;;;;;;;35.55;23.20;;;4.30;99.90;;;;;;5051718;28;20574;-81
2020/12/05 05:07:15;;;;;;;37.60;24.33;;;4.20;99.90;;;;;;5051816;28;20426;-77
2020/12/05 05:09:47;;;;;;;36.22;24.00;;;4.20;99.90;;;;;;5050910;28;20427;-77
2020/12/05 05:12:25;;;;;;;38.00;23.50;;;4.10;99.90;;;;;;5051415;28;20476;-77
2020/12/05 05:14:53;;;;;;;39.88;24.33;;;4.00;99.90;;;;;;5030982;28;20427;-77
2020/12/05 05:17:19;;;;;;;36.50;23.20;;;3.90;99.90;;;;;;5040254;28;20063;-77
2020/12/05 05:19:45;;;;;;;44.60;26.80;;;3.80;99.90;;;;;;5052048;28;20091;-77
2020/12/05 05:22:13;;;;;;;46.08;25.98;;;3.70;99.90;;;;;;5051031;28;20341;-77
2020/12/05 05:24:40;;;;;;;44.22;26.02;;;3.60;99.90;;;;;;5053786;28;20451;-77
2020/12/05 05:27:08;;;;;;;45.40;26.98;;;3.60;99.90;;;;;;5052464;28;20114;-77
2020/12/05 05:29:37;;;;;;;44.33;26.88;;;3.60;99.90;;;;;;5051776;28;20045;-76
2020/12/05 05:32:09;;;;;;;46.15;26.80;;;3.50;99.90;;;;;;5052239;28;20071;-77
2020/12/05 05:34:36;;;;;;;46.08;27.88;;;3.50;99.90;;;;;;5052331;28;20076;-79
2020/12/05 05:37:13;;;;;;;45.35;28.05;;;3.40;99.90;;;;;;5051664;28;20056;-78
2020/12/05 05:39:44;;;;;;;48.33;28.05;;;3.40;99.90;;;;;;5055425;28;20152;-78
2020/12/05 05:42:11;;;;;;;47.10;27.17;;;3.40;99.90;;;;;;5055891;28;20494;-78
2020/12/05 05:44:37;;;;;;;47.55;28.70;;;3.40;99.90;;;;;;5055799;28;20045;-78
2020/12/05 05:47:06;;;;;;;47.42;27.80;;;3.40;99.90;;;;;;5055407;28;20147;-78
2020/12/05 05:49:34;;;;;;;44.83;27.50;;;3.40;99.90;;;;;;5056428;28;20049;-77
2020/12/05 05:52:01;;;;;;;44.28;27.05;;;3.40;99.90;;;;;;5058147;28;20064;-78
2020/12/05 05:54:30;;;;;;;47.08;27.85;;;3.40;99.90;;;;;;5063108;28;20080;-77
2020/12/05 05:56:59;;;;;;;46.25;28.58;;;3.40;99.90;;;;;;5064324;28;20071;-78
2020/12/05 05:59:27;;;;;;;51.88;28.38;;;3.40;99.90;;;;;;5064593;28;20060;-79
2020/12/05 06:01:55;;;;;;;51.88;28.05;;;3.40;99.90;;;;;;5064916;28;20099;-77
2020/12/05 06:04:28;;;;;;;44.58;25.80;;;3.40;99.90;;;;;;5064943;28;20077;-78
2020/12/05 06:06:57;;;;;;;57.33;35.38;;;3.40;99.90;;;;;;5064001;28;20053;-79
2020/12/05 06:09:26;;;;;;;63.28;37.28;;;3.40;99.90;;;;;;5065220;28;20051;-78
2020/12/05 06:11:55;;;;;;;50.92;32.28;;;3.40;99.90;;;;;;5065780;28;20049;-78
2020/12/05 06:14:21;;;;;;;49.55;28.20;;;3.40;99.90;;;;;;5066689;28;20045;-78
2020/12/05 06:16:54;;;;;;;47.33;25.73;;;3.30;99.90;;;;;;5066406;28;20061;-78
2020/12/05 06:19:21;;;;;;;50.17;27.55;;;3.30;99.90;;;;;;5065999;28;20073;-78
2020/12/05 06:21:53;;;;;;;45.15;26.35;;;3.30;99.90;;;;;;5067239;28;20087;-78
2020/12/05 06:24:34;;;;;;;44.72;26.45;;;3.20;99.90;;;;;;5066605;28;20049;-79
2020/12/05 06:27:02;;;;;;;45.90;26.80;;;3.20;99.90;;;;;;5066575;28;20088;-78
2020/12/05 06:29:32;;;;;;;47.17;27.58;;;3.20;99.90;;;;;;5064029;28;20053;-79
2020/12/05 06:31:58;;;;;;;43.92;27.10;;;3.20;99.90;;;;;;5055483;28;20053;-77
2020/12/05 06:34:37;;;;;;;46.97;27.15;;;3.20;99.90;;;;;;5055291;28;20072;-79
2020/12/05 06:37:04;;;;;;;48.80;27.30;;;3.20;99.90;;;;;;5055042;28;20131;-77
2020/12/05 06:39:31;;;;;;;49.20;27.08;;;3.20;99.90;;;;;;5054625;28;20131;-78
2020/12/05 06:41:57;;;;;;;43.13;26.83;;;3.20;99.90;;;;;;5056304;28;20514;-78
2020/12/05 06:44:25;;;;;;;50.20;28.63;;;3.20;99.90;;;;;;5055810;28;20048;-79
2020/12/05 06:46:54;;;;;;;51.10;27.85;;;3.30;99.90;;;;;;5060900;28;20088;-78
2020/12/05 06:49:52;;;;;;;50.03;29.65;;;3.30;99.90;;;;;;5064963;28;20045;-77
2020/12/05 06:52:40;;;;;;;51.58;29.02;;;3.30;99.90;;;;;;5067883;28;20059;-78
2020/12/05 06:55:12;;;;;;;48.45;28.63;;;3.30;99.90;;;;;;5057676;28;20490;-79
2020/12/05 06:57:41;;;;;;;63.00;36.28;;;3.40;99.90;;;;;;5055406;28;20049;-79
2020/12/05 07:00:23;;;;;;;50.10;30.27;;;3.40;99.90;;;;;;5057746;28;20472;-79
2020/12/05 07:02:54;;;;;;;49.28;29.02;;;3.50;99.90;;;;;;5058641;28;20096;-79
2020/12/05 07:05:29;;;;;;;54.25;28.38;;;3.50;99.90;;;;;;5057925;28;20110;-79
2020/12/05 07:07:58;;;;;;;46.30;27.52;;;3.50;99.90;;;;;;5059497;28;20175;-79
2020/12/05 07:10:46;;;;;;;48.47;29.42;;;3.60;99.90;;;;;;5059120;28;20052;-79
2020/12/05 07:13:17;;;;;;;45.45;26.77;;;3.60;99.90;;;;;;5057968;28;20045;-79
2020/12/05 07:15:43;;;;;;;47.60;28.40;;;3.60;99.90;;;;;;5059076;28;20049;-80
2020/12/05 07:18:18;;;;;;;44.50;26.95;;;3.60;99.90;;;;;;5060255;28;20045;-80
2020/12/05 07:20:44;;;;;;;47.22;28.00;;;3.70;99.90;;;;;;5059781;28;20049;-79
2020/12/05 07:23:12;;;;;;;46.47;26.13;;;3.70;99.90;;;;;;5059402;28;20518;-79
2020/12/05 07:25:38;;;;;;;51.78;27.33;;;3.80;99.90;;;;;;5069860;28;20426;-81
2020/12/05 07:28:04;;;;;;;49.83;27.13;;;3.80;99.90;;;;;;5071848;28;20060;-81
2020/12/05 07:30:31;;;;;;;48.50;27.40;;;3.80;99.90;;;;;;5065701;28;20044;-81
2020/12/05 07:32:57;;;;;;;44.17;25.98;;;3.90;99.90;;;;;;5057492;28;20080;-78
2020/12/05 07:35:24;;;;;;;41.47;25.98;;;3.90;99.90;;;;;;5055970;28;20053;-79
2020/12/05 07:37:50;;;;;;;46.75;26.55;;;3.90;99.90;;;;;;5056530;28;20048;-78
2020/12/05 07:40:27;;;;;;;41.47;25.50;;;4.00;99.90;;;;;;5053501;28;20563;-78
2020/12/05 07:42:54;;;;;;;41.03;24.90;;;4.00;99.90;;;;;;5055376;28;20049;-82
2020/12/05 07:45:20;;;;;;;38.00;23.90;;;4.00;99.90;;;;;;5058306;28;20045;-82
2020/12/05 07:47:47;;;;;;;41.15;23.52;;;4.00;99.90;;;;;;5055040;28;20136;-78
2020/12/05 07:50:14;;;;;;;40.95;23.58;;;4.10;99.90;;;;;;5053447;28;20049;-78
2020/12/05 07:52:41;;;;;;;35.60;22.42;;;4.10;99.90;;;;;;5056968;28;20095;-80
2020/12/05 07:55:09;;;;;;;36.42;23.60;;;4.00;99.90;;;;;;5057062;28;20410;-80
2020/12/05 07:57:39;;;;;;;35.13;22.25;;;3.90;99.90;;;;;;5058616;28;20315;-80
2020/12/05 08:00:07;;;;;;;35.35;22.73;;;3.80;99.90;;;;;;5056615;28;20048;-80
2020/12/05 08:02:58;;;;;;;37.45;22.60;;;3.70;99.90;;;;;;5058564;28;20383;-80
2020/12/05 08:05:43;;;;;;;35.83;22.90;;;3.70;99.90;;;;;;5056059;28;20085;-81
2020/12/05 08:08:12;;;;;;;31.67;21.33;;;3.70;99.90;;;;;;5055966;28;20613;-77
2020/12/05 08:10:38;;;;;;;35.50;21.90;;;3.80;99.90;;;;;;5065338;28;20147;-79
2020/12/05 08:13:21;;;;;;;35.95;22.65;;;3.80;99.90;;;;;;5062852;28;20053;-80
2020/12/05 08:15:52;;;;;;;32.17;20.98;;;3.80;99.90;;;;;;5062270;28;20056;-80
2020/12/05 08:18:20;;;;;;;39.47;23.13;;;3.70;99.90;;;;;;5061031;28;20060;-80
2020/12/05 08:20:48;;;;;;;39.08;22.88;;;3.70;99.90;;;;;;5061133;28;20076;-80
2020/12/05 08:23:22;;;;;;;34.35;21.67;;;3.70;99.90;;;;;;5060807;28;20048;-80
2020/12/05 08:25:49;;;;;;;35.78;22.52;;;3.70;99.90;;;;;;5048968;28;20045;-80
2020/12/05 08:28:20;;;;;;;38.72;22.30;;;3.70;99.90;;;;;;5036755;28;20111;-81
2020/12/05 08:30:47;;;;;;;35.30;21.23;;;3.70;99.90;;;;;;5036842;28;20049;-79
2020/12/05 08:33:13;;;;;;;33.92;20.90;;;3.70;99.90;;;;;;5035004;28;20487;-79
2020/12/05 08:35:41;;;;;;;35.97;21.48;;;3.70;99.90;;;;;;5035373;28;20049;-79
2020/12/05 08:38:12;;;;;;;31.55;20.42;;;3.70;99.90;;;;;;5035364;28;20077;-77
2020/12/05 08:40:38;;;;;;;28.67;19.48;;;3.80;99.90;;;;;;5034902;28;20076;-79
2020/12/05 08:43:05;;;;;;;32.33;19.48;;;3.80;99.90;;;;;;5035488;28;20119;-81
2020/12/05 08:45:38;;;;;;;31.38;19.73;;;3.80;99.90;;;;;;5035608;28;20100;-79
2020/12/05 08:48:16;;;;;;;31.23;19.80;;;3.80;99.90;;;;;;5034988;28;20652;-80
2020/12/05 08:50:42;;;;;;;25.30;17.05;;;3.90;99.90;;;;;;5034978;28;20052;-78
2020/12/05 08:53:10;;;;;;;27.30;17.02;;;3.90;99.90;;;;;;5034789;28;20053;-78
2020/12/05 08:55:36;;;;;;;26.98;16.58;;;4.00;99.90;;;;;;5034563;28;20076;-79
2020/12/05 08:58:05;;;;;;;26.02;17.23;;;4.10;99.90;;;;;;5035369;28;20503;-78
2020/12/05 09:00:33;;;;;;;24.38;15.85;;;4.20;99.90;;;;;;5036693;28;20375;-80
2020/12/05 09:03:01;;;;;;;25.55;16.50;;;4.40;99.90;;;;;;5035634;28;20065;-80
2020/12/05 09:05:28;;;;;;;24.00;16.33;;;4.50;99.90;;;;;;5034836;28;20079;-79
2020/12/05 09:07:55;;;;;;;24.48;16.30;;;4.70;99.90;;;;;;5033472;28;20141;-79
2020/12/05 09:10:23;;;;;;;27.35;16.83;;;4.80;99.90;;;;;;5035280;28;20073;-79
2020/12/05 09:12:49;;;;;;;22.95;14.82;;;4.80;99.90;;;;;;5034318;28;20060;-80
2020/12/05 09:15:18;;;;;;;25.10;15.57;;;4.90;99.90;;;;;;5034916;28;20203;-80
2020/12/05 09:17:55;;;;;;;19.77;13.90;;;5.00;99.90;;;;;;5035089;28;20085;-80
2020/12/05 09:20:22;;;;;;;24.02;15.02;;;5.10;99.90;;;;;;5034436;28;20083;-80
2020/12/05 09:22:50;;;;;;;22.50;15.07;;;5.20;99.90;;;;;;5034856;28;20046;-80
2020/12/05 09:25:27;;;;;;;24.42;15.70;;;5.20;99.90;;;;;;5034570;28;20096;-81
2020/12/05 09:27:54;;;;;;;26.45;16.85;;;5.30;99.90;;;;;;5035227;28;20066;-80
2020/12/05 09:30:23;;;;;;;27.85;18.60;;;5.30;99.90;;;;;;5035894;28;20435;-79
2020/12/05 09:32:51;;;;;;;26.23;18.40;;;5.30;99.90;;;;;;5034563;28;20475;-80
2020/12/05 09:35:19;;;;;;;19.00;13.52;;;5.30;99.90;;;;;;5034485;28;20057;-79
2020/12/05 09:37:46;;;;;;;16.52;11.63;;;5.40;99.90;;;;;;5034742;28;20148;-80
2020/12/05 09:40:15;;;;;;;15.48;10.80;;;5.50;99.90;;;;;;5035406;28;20137;-80
2020/12/05 09:42:44;;;;;;;14.60;10.95;;;5.60;99.90;;;;;;5035047;28;20049;-79
2020/12/05 09:45:12;;;;;;;15.88;11.18;;;5.70;99.90;;;;;;5036596;28;20050;-80
2020/12/05 09:47:39;;;;;;;16.42;11.68;;;5.70;99.90;;;;;;5036304;28;20046;-80
2020/12/05 09:50:07;;;;;;;15.75;11.63;;;5.80;99.90;;;;;;5036928;28;20080;-80
2020/12/05 09:52:36;;;;;;;14.52;10.82;;;5.90;99.90;;;;;;5039177;28;20053;-80
2020/12/05 09:55:04;;;;;;;15.23;9.77;;;5.90;99.90;;;;;;5055419;28;20060;-82
2020/12/05 09:57:30;;;;;;;14.63;9.73;;;6.00;99.90;;;;;;5057612;28;20045;-80
2020/12/05 09:59:57;;;;;;;17.58;8.88;;;6.10;99.90;;;;;;5059306;28;20059;-80
2020/12/05 10:02:24;;;;;;;10.13;7.07;;;6.20;99.90;;;;;;5059188;28;20052;-81
2020/12/05 10:04:50;;;;;;;9.63;5.03;;;6.20;99.90;;;;;;5057048;28;20055;-81
2020/12/05 10:09:45;;;;;;;7.53;4.55;;;6.30;99.90;;;;;;5069257;28;20053;-74
2020/12/05 10:12:12;;;;;;;6.53;4.35;;;6.30;99.90;;;;;;5067679;28;20080;-74
2020/12/05 10:14:38;;;;;;;5.80;4.32;;;6.30;99.90;;;;;;5060443;28;20071;-75
2020/12/05 10:17:04;;;;;;;6.18;4.50;;;6.40;99.90;;;;;;5052996;28;20127;-75
2020/12/05 10:19:31;;;;;;;6.50;4.28;;;6.40;99.90;;;;;;5051190;28;20511;-73
2020/12/05 10:21:57;;;;;;;5.75;4.20;;;6.40;99.90;;;;;;5051113;28;20076;-76
2020/12/05 10:24:24;;;;;;;6.05;4.07;;;6.50;99.90;;;;;;5052699;28;20100;-76
2020/12/05 10:26:53;;;;;;;7.15;4.00;;;6.50;99.90;;;;;;5054990;28;20589;-75
2020/12/05 10:29:19;;;;;;;5.28;3.80;;;6.50;99.90;;;;;;5049284;28;20403;-75
2020/12/05 10:31:46;;;;;;;5.72;4.40;;;6.50;99.90;;;;;;5054210;28;20566;-75
2020/12/05 10:34:13;;;;;;;6.25;4.05;;;6.60;99.90;;;;;;5054785;28;20585;-74
2020/12/05 10:36:40;;;;;;;6.13;4.30;;;6.60;99.90;;;;;;5054638;28;20148;-74
2020/12/05 10:39:07;;;;;;;7.75;4.00;;;6.60;99.90;;;;;;5054805;28;20077;-74
2020/12/05 10:41:36;;;;;;;4.60;3.40;;;6.70;99.90;;;;;;5054605;28;20049;-75
2020/12/05 10:44:03;;;;;;;6.28;3.60;;;6.70;99.90;;;;;;5051150;28;20056;-74
2020/12/05 10:46:30;;;;;;;8.13;3.55;;;6.70;99.90;;;;;;5053381;28;20077;-73
2020/12/05 10:48:56;;;;;;;5.85;3.50;;;6.70;99.90;;;;;;5052990;28;20045;-75
2020/12/05 10:51:22;;;;;;;6.72;3.60;;;6.70;99.90;;;;;;5050283;28;20040;-76
2020/12/05 10:53:49;;;;;;;7.38;3.60;;;6.70;99.90;;;;;;5054237;28;20493;-75
2020/12/05 10:56:15;;;;;;;4.82;3.42;;;6.80;99.90;;;;;;5054020;28;20131;-73
2020/12/05 10:58:42;;;;;;;4.60;3.70;;;6.70;99.90;;;;;;5053200;28;20141;-74
2020/12/05 11:01:09;;;;;;;4.30;3.63;;;6.70;99.90;;;;;;5053367;28;20128;-75
2020/12/05 11:03:35;;;;;;;5.70;3.60;;;6.80;99.90;;;;;;5053553;28;20045;-75
2020/12/05 11:06:02;;;;;;;5.40;3.67;;;6.80;99.90;;;;;;5055043;28;20124;-75
2020/12/05 11:08:28;;;;;;;5.30;3.55;;;6.80;99.90;;;;;;5053490;28;20550;-74
2020/12/05 11:10:54;;;;;;;4.82;3.38;;;6.90;99.90;;;;;;5053738;28;20081;-75
2020/12/05 11:13:21;;;;;;;5.03;3.45;;;6.90;99.90;;;;;;5053364;28;20128;-75
2020/12/05 11:15:47;;;;;;;4.80;3.35;;;6.90;99.90;;;;;;5049096;28;20122;-75
2020/12/05 11:18:14;;;;;;;3.67;3.05;;;6.90;99.90;;;;;;5051966;28;20124;-74
2020/12/05 11:20:41;;;;;;;3.92;3.13;;;6.90;99.90;;;;;;5053316;28;20041;-75
2020/12/05 11:23:07;;;;;;;5.32;2.80;;;6.90;99.90;;;;;;5052794;28;20133;-75
2020/12/05 11:25:33;;;;;;;3.05;2.75;;;6.90;99.90;;;;;;5052350;28;20132;-75
2020/12/05 11:28:00;;;;;;;5.53;2.50;;;6.90;99.90;;;;;;5052574;28;20057;-75
2020/12/05 11:30:26;;;;;;;4.10;2.45;;;6.90;99.90;;;;;;5052030;28;20099;-76
2020/12/05 11:32:53;;;;;;;2.42;2.08;;;6.90;99.90;;;;;;5052386;28;20148;-75
2020/12/05 11:35:20;;;;;;;5.93;2.28;;;6.90;99.90;;;;;;5051589;28;20098;-75
2020/12/05 11:37:47;;;;;;;7.35;2.58;;;6.90;99.90;;;;;;5050703;28;20665;-75
2020/12/05 11:40:13;;;;;;;4.80;2.25;;;6.90;99.90;;;;;;5052721;28;20090;-77
2020/12/05 11:42:39;;;;;;;3.15;2.22;;;6.90;99.90;;;;;;5053155;28;20081;-75
2020/12/05 11:45:06;;;;;;;4.47;2.20;;;6.90;99.90;;;;;;5053020;28;20092;-76
2020/12/05 11:47:32;;;;;;;5.57;2.22;;;7.00;99.90;;;;;;5051801;28;20491;-75
2020/12/05 11:49:59;;;;;;;3.72;2.40;;;7.00;99.90;;;;;;5050421;28;20094;-74
2020/12/05 11:52:26;;;;;;;2.50;2.08;;;7.00;99.90;;;;;;5053392;28;20544;-75
2020/12/05 11:54:52;;;;;;;4.90;2.42;;;7.00;99.90;;;;;;5052967;28;20075;-75
2020/12/05 11:57:19;;;;;;;2.47;2.28;;;7.10;99.90;;;;;;5052149;28;20076;-75
2020/12/05 11:59:45;;;;;;;4.65;2.40;;;7.10;99.90;;;;;;5051607;28;20098;-75
2020/12/05 12:02:11;;;;;;;3.67;2.25;;;7.10;99.90;;;;;;5050433;28;20507;-77
2020/12/05 12:04:39;;;;;;;7.00;2.58;;;7.20;99.90;;;;;;5051960;28;20041;-76
2020/12/05 12:07:06;;;;;;;4.28;2.28;;;7.20;99.90;;;;;;5050753;28;20132;-75
2020/12/05 12:09:33;;;;;;;3.60;2.35;;;7.20;99.90;;;;;;5050247;28;20119;-76
2020/12/05 12:12:00;;;;;;;3.17;2.42;;;7.20;99.90;;;;;;5052921;28;20087;-75
2020/12/05 12:14:26;;;;;;;3.55;2.38;;;7.30;99.90;;;;;;5053256;28;20128;-74
2020/12/05 12:16:53;;;;;;;3.72;2.60;;;7.30;99.90;;;;;;5052911;28;20049;-75
2020/12/05 12:19:19;;;;;;;4.72;2.70;;;7.20;99.90;;;;;;5052540;28;20151;-75
2020/12/05 12:21:46;;;;;;;4.70;2.65;;;7.30;99.90;;;;;;5053059;28;20450;-76
2020/12/05 12:24:12;;;;;;;3.15;2.72;;;7.30;99.90;;;;;;5052523;28;20123;-75
2020/12/05 12:26:39;;;;;;;5.43;3.65;;;7.30;99.90;;;;;;5051951;28;20073;-78
2020/12/05 12:29:05;;;;;;;6.72;3.67;;;7.30;99.90;;;;;;5050647;28;20129;-76
2020/12/05 12:31:32;;;;;;;6.28;3.17;;;7.30;99.90;;;;;;5052124;28;20132;-76
2020/12/05 12:33:58;;;;;;;6.78;3.28;;;7.30;99.90;;;;;;5051334;28;20159;-75
2020/12/05 12:36:25;;;;;;;5.68;3.17;;;7.40;99.90;;;;;;5052518;28;20127;-77
2020/12/05 12:38:51;;;;;;;4.95;3.00;;;7.40;99.90;;;;;;5055186;28;20076;-76
2020/12/05 12:41:19;;;;;;;4.88;2.80;;;7.40;99.90;;;;;;5052122;28;20081;-76
2020/12/05 12:43:47;;;;;;;5.20;2.78;;;7.30;99.90;;;;;;5053031;28;20074;-77
2020/12/05 12:46:14;;;;;;;7.25;2.85;;;7.30;99.90;;;;;;5052315;28;20085;-77